Terminal Aerodrome Forecast
Issued by NWS Sterling, VA

Current Version | Previous Version | Graphics & Text | Print | Product List | Glossary On
Versions: 1 2 3 4 5 6 7 8 9 10 11 12 13 14
120
FTUS41 KLWX 271739
TAFMRB
TAF
KMRB 271739Z 2718/2818 26011KT P6SM VCTS SCT070CB
     FM272100 29010KT P6SM SCT070
     FM280200 31006KT P6SM SKC=

USA.gov is the U.S. government's official web portal to all federal, state and local government web resources and services.